Language: 


Des rapports , des résumés tant et plus, au choix de chacun....


Données Historiques de Météogheer
Journalier Rapport pour Janvier 11, 2017 Unitée:  Les deux    Impériale   Métrique
Suivant Jour »
Journalier Hebdomadaire Mensuel Annuel Sur mesure
  Max: Min: Moyenne:
Température: 54.9 °F /  12.7 °C 32 °F /  0.0 °C 46.6 °F /  8.1 °C
Point de rosée: 52.3 °F /  11.3 °C 33.6 °F /  0.9 °C 41.5 °F /  5.3 °C
Humidité: 96% 0% 83%
Vent: 17.7mph /  28.5km/h - 6.6mph /  10.7km/h
Rafales: 22.6mph /  36.4km/h - -
Vent- - West
Pression: 29.9 in /  1014.1 hPa 29.7 in /  1006.0 hPa -
Pluie: 0.01 in /  0.3 mm    
Historical Graphs
 
 
Données tabulaires pour Janvier 11, 2017
Heure Température Point de rosée Pression Vent Vent Rafales Humidité Pluie Taux (Horaire) Conditions
00:04 42.8 °F /  6.0 °C 41.7 °F /  5.4 °C 29.9in /  1012.1hPa WSW 4mph /  6.4km/h 5.8mph /  9.3km/h 96% 0in /  0.0mm
00:09 42.8 °F /  6.0 °C 41.7 °F /  5.4 °C 29.9in /  1012.1hPa WSW 4mph /  6.4km/h 5.8mph /  9.3km/h 96% 0in /  0.0mm
00:14 42.8 °F /  6.0 °C 41.7 °F /  5.4 °C 29.9in /  1012.1hPa West 4.7mph /  7.6km/h 4.9mph /  7.9km/h 96% 0in /  0.0mm
00:19 43 °F /  6.1 °C 41.9 °F /  5.5 °C 29.9in /  1012.1hPa WSW 4mph /  6.4km/h 4.9mph /  7.9km/h 96% 0in /  0.0mm
00:24 42.8 °F /  6.0 °C 41.4 °F /  5.2 °C 29.9in /  1013.1hPa WSW 2.7mph /  4.3km/h 4.7mph /  7.6km/h 95% 0in /  0.0mm
00:29 42.8 °F /  6.0 °C 41.4 °F /  5.2 °C 29.9in /  1013.1hPa SW 3.8mph /  6.1km/h 4mph /  6.4km/h 95% 0in /  0.0mm
00:34 42.8 °F /  6.0 °C 41.4 °F /  5.2 °C 29.9in /  1013.1hPa SW 4mph /  6.4km/h 4.3mph /  6.9km/h 95% 0in /  0.0mm
00:39 42.8 °F /  6.0 °C 41.4 °F /  5.2 °C 29.9in /  1013.1hPa WSW 3.1mph /  5.0km/h 5.4mph /  8.7km/h 95% 0in /  0.0mm
00:44 43 °F /  6.1 °C 41.5 °F /  5.3 °C 29.9in /  1013.1hPa SW 4mph /  6.4km/h 5.6mph /  9.0km/h 95% 0in /  0.0mm
00:49 43.2 °F /  6.2 °C 42.1 °F /  5.6 °C 29.9in /  1013.1hPa SSW 3.8mph /  6.1km/h 6.3mph /  10.1km/h 96% 0in /  0.0mm
00:54 43.2 °F /  6.2 °C 42.1 °F /  5.6 °C 29.9in /  1012.1hPa SW 4mph /  6.4km/h 7.8mph /  12.6km/h 96% 0in /  0.0mm
00:59 43.2 °F /  6.2 °C 42.1 °F /  5.6 °C 29.9in /  1012.1hPa WSW 5.4mph /  8.7km/h 7.8mph /  12.6km/h 96% 0in /  0.0mm
01:04 43.2 °F /  6.2 °C 41.7 °F /  5.4 °C 29.9in /  1012.1hPa WSW 6mph /  9.7km/h 6.5mph /  10.5km/h 95% 0in /  0.0mm
01:09 43.3 °F /  6.3 °C 42.1 °F /  5.6 °C 29.9in /  1012.1hPa SW 3.8mph /  6.1km/h 7.2mph /  11.6km/h 95% 0in /  0.0mm
01:14 43.3 °F /  6.3 °C 42.1 °F /  5.6 °C 29.9in /  1012.1hPa SSW 6.5mph /  10.5km/h 7.2mph /  11.6km/h 95% 0in /  0.0mm
01:19 43.3 °F /  6.3 °C 42.1 °F /  5.6 °C 29.9in /  1012.1hPa SW 4.7mph /  7.6km/h 7.4mph /  11.9km/h 95% 0in /  0.0mm
01:24 43.5 °F /  6.4 °C 42.1 °F /  5.6 °C 29.9in /  1011.1hPa SSW 4.3mph /  6.9km/h 7.4mph /  11.9km/h 95% 0in /  0.0mm
01:29 43.5 °F /  6.4 °C 42.1 °F /  5.6 °C 29.9in /  1011.1hPa SSW 5.8mph /  9.3km/h 7.4mph /  11.9km/h 95% 0in /  0.0mm
01:34 43.5 °F /  6.4 °C 42.1 °F /  5.6 °C 29.9in /  1011.1hPa SW 6mph /  9.7km/h 7.4mph /  11.9km/h 95% 0in /  0.0mm
01:39 43.5 °F /  6.4 °C 42.1 °F /  5.6 °C 29.9in /  1011.1hPa SW 2.9mph /  4.7km/h 7.4mph /  11.9km/h 95% 0in /  0.0mm
01:44 43.5 °F /  6.4 °C 42.1 °F /  5.6 °C 29.9in /  1011.1hPa SSW 6.3mph /  10.1km/h 6.3mph /  10.1km/h 95% 0in /  0.0mm
01:49 43.5 °F /  6.4 °C 42.1 °F /  5.6 °C 29.9in /  1011.1hPa SSW 4.3mph /  6.9km/h 6.3mph /  10.1km/h 95% 0in /  0.0mm
01:54 43.5 °F /  6.4 °C 42.1 °F /  5.6 °C 29.9in /  1011.1hPa SW 5.6mph /  9.0km/h 6.3mph /  10.1km/h 95% 0in /  0.0mm
01:59 43.5 °F /  6.4 °C 42.1 °F /  5.6 °C 29.9in /  1011.1hPa SSW 4mph /  6.4km/h 7.4mph /  11.9km/h 95% 0in /  0.0mm
02:04 43.5 °F /  6.4 °C 42.1 °F /  5.6 °C 29.9in /  1011.1hPa SSW 5.8mph /  9.3km/h 7.4mph /  11.9km/h 95% 0in /  0.0mm
02:09 43.5 °F /  6.4 °C 42.3 °F /  5.7 °C 29.9in /  1011.1hPa SSW 4.3mph /  6.9km/h 7.2mph /  11.6km/h 95% 0in /  0.0mm
02:14 43.5 °F /  6.4 °C 42.3 °F /  5.7 °C 29.9in /  1011.1hPa WSW 3.6mph /  5.8km/h 8.5mph /  13.7km/h 95% 0in /  0.0mm
02:19 43.9 °F /  6.6 °C 42.4 °F /  5.8 °C 29.9in /  1011.1hPa WSW 5.8mph /  9.3km/h 8.5mph /  13.7km/h 95% 0in /  0.0mm
02:24 43.9 °F /  6.6 °C 42.4 °F /  5.8 °C 29.9in /  1011.1hPa SSW 7.6mph /  12.2km/h 8.1mph /  13.0km/h 95% 0in /  0.0mm
02:29 43.9 °F /  6.6 °C 42.4 °F /  5.8 °C 29.9in /  1011.1hPa WSW 4.3mph /  6.9km/h 8.1mph /  13.0km/h 95% 0in /  0.0mm
02:34 43.9 °F /  6.6 °C 42.4 °F /  5.8 °C 29.9in /  1011.1hPa WSW 6.5mph /  10.5km/h 7.6mph /  12.2km/h 95% 0in /  0.0mm
02:39 43.9 °F /  6.6 °C 42.4 °F /  5.8 °C 29.9in /  1011.1hPa SW 4mph /  6.4km/h 7.6mph /  12.2km/h 95% 0in /  0.0mm
02:44 43.9 °F /  6.6 °C 42.4 °F /  5.8 °C 29.9in /  1011.1hPa SW 5.6mph /  9.0km/h 7.6mph /  12.2km/h 95% 0in /  0.0mm
02:49 43.9 °F /  6.6 °C 42.4 °F /  5.8 °C 29.9in /  1011.1hPa WSW 5.4mph /  8.7km/h 7.4mph /  11.9km/h 95% 0in /  0.0mm
02:54 44.1 °F /  6.7 °C 42.6 °F /  5.9 °C 29.9in /  1011.1hPa SW 4mph /  6.4km/h 7.2mph /  11.6km/h 95% 0in /  0.0mm
02:59 43.9 °F /  6.6 °C 42.4 °F /  5.8 °C 29.9in /  1011.1hPa SW 4.7mph /  7.6km/h 7.2mph /  11.6km/h 95% 0in /  0.0mm
03:06 32 °F /  0.0 °C 42.6 °F /  5.9 °C 29.9in /  1011.1hPa SW 4.9mph /  7.9km/h 6.5mph /  10.5km/h 0% 0in /  0.0mm
03:11 44.1 °F /  6.7 °C 42.6 °F /  5.9 °C 29.9in /  1011.1hPa WSW 6.3mph /  10.1km/h 7.4mph /  11.9km/h 95% 0in /  0.0mm
03:16 44.1 °F /  6.7 °C 42.6 °F /  5.9 °C 29.9in /  1011.1hPa WSW 4.9mph /  7.9km/h 8.1mph /  13.0km/h 95% 0in /  0.0mm
03:21 44.1 °F /  6.7 °C 42.6 °F /  5.9 °C 29.9in /  1011.1hPa SW 5.4mph /  8.7km/h 8.1mph /  13.0km/h 95% 0in /  0.0mm
03:26 44.1 °F /  6.7 °C 42.6 °F /  5.9 °C 29.9in /  1011.1hPa WSW 5.4mph /  8.7km/h 7.8mph /  12.6km/h 95% 0in /  0.0mm
03:31 43.9 °F /  6.6 °C 42.4 °F /  5.8 °C 29.9in /  1011.1hPa SW 4.9mph /  7.9km/h 7.2mph /  11.6km/h 95% 0in /  0.0mm
03:36 43.9 °F /  6.6 °C 42.4 °F /  5.8 °C 29.9in /  1011.1hPa SSW 6.7mph /  10.8km/h 7.6mph /  12.2km/h 95% 0in /  0.0mm
03:41 43.9 °F /  6.6 °C 42.4 °F /  5.8 °C 29.9in /  1011.1hPa SSW 7.4mph /  11.9km/h 7.8mph /  12.6km/h 95% 0in /  0.0mm
03:46 43.9 °F /  6.6 °C 42.8 °F /  6.0 °C 29.9in /  1011.1hPa SW 6.5mph /  10.5km/h 10.3mph /  16.6km/h 96% 0in /  0.0mm
03:51 43.9 °F /  6.6 °C 42.8 °F /  6.0 °C 29.9in /  1011.1hPa SSW 5.8mph /  9.3km/h 10.3mph /  16.6km/h 96% 0in /  0.0mm
03:56 43.5 °F /  6.4 °C 42.6 °F /  5.9 °C 29.8in /  1010.0hPa SW 8.5mph /  13.7km/h 10.1mph /  16.3km/h 96% 0in /  0.0mm
04:01 43.5 °F /  6.4 °C 42.6 °F /  5.9 °C 29.8in /  1010.0hPa SW 5.8mph /  9.3km/h 8.5mph /  13.7km/h 96% 0in /  0.0mm
04:06 43.5 °F /  6.4 °C 42.4 °F /  5.8 °C 29.8in /  1010.0hPa SW 6.5mph /  10.5km/h 9.2mph /  14.8km/h 96% 0in /  0.0mm
04:11 43.5 °F /  6.4 °C 42.6 °F /  5.9 °C 29.8in /  1010.0hPa SW 4.3mph /  6.9km/h 9.2mph /  14.8km/h 96% 0in /  0.0mm
04:16 43.5 °F /  6.4 °C 42.6 °F /  5.9 °C 29.8in /  1010.0hPa WSW 6.5mph /  10.5km/h 8.1mph /  13.0km/h 96% 0in /  0.0mm
04:21 43.9 °F /  6.6 °C 42.8 °F /  6.0 °C 29.8in /  1010.0hPa SW 5.6mph /  9.0km/h 8.1mph /  13.0km/h 96% 0in /  0.0mm
04:26 43.9 °F /  6.6 °C 42.8 °F /  6.0 °C 29.8in /  1010.0hPa SW 8.1mph /  13.0km/h 10.5mph /  16.9km/h 96% 0in /  0.0mm
04:31 43.5 °F /  6.4 °C 42.6 °F /  5.9 °C 29.8in /  1010.0hPa WSW 5.8mph /  9.3km/h 10.5mph /  16.9km/h 96% 0in /  0.0mm
04:36 43.5 °F /  6.4 °C 42.6 °F /  5.9 °C 29.8in /  1010.0hPa SW 6.5mph /  10.5km/h 10.5mph /  16.9km/h 96% 0in /  0.0mm
04:41 43.5 °F /  6.4 °C 42.6 °F /  5.9 °C 29.8in /  1010.0hPa SSW 4.9mph /  7.9km/h 9.6mph /  15.4km/h 96% 0in /  0.0mm
04:46 43.5 °F /  6.4 °C 42.4 °F /  5.8 °C 29.8in /  1010.0hPa SSW 6.5mph /  10.5km/h 8.5mph /  13.7km/h 96% 0in /  0.0mm
04:51 43.5 °F /  6.4 °C 42.4 °F /  5.8 °C 29.8in /  1010.0hPa WSW 4.9mph /  7.9km/h 8.5mph /  13.7km/h 96% 0in /  0.0mm
04:56 43.5 °F /  6.4 °C 42.4 °F /  5.8 °C 29.8in /  1009.0hPa WSW 5.6mph /  9.0km/h 10.1mph /  16.3km/h 96% 0in /  0.0mm
05:01 43.3 °F /  6.3 °C 42.3 °F /  5.7 °C 29.8in /  1009.0hPa SSW 5.4mph /  8.7km/h 10.1mph /  16.3km/h 96% 0in /  0.0mm
05:06 43.3 °F /  6.3 °C 42.3 °F /  5.7 °C 29.8in /  1009.0hPa WSW 7.6mph /  12.2km/h 8.7mph /  14.0km/h 96% 0in /  0.0mm
05:11 43.3 °F /  6.3 °C 42.3 °F /  5.7 °C 29.8in /  1009.0hPa SSW 6.3mph /  10.1km/h 8.7mph /  14.0km/h 96% 0in /  0.0mm
05:16 43.5 °F /  6.4 °C 42.4 °F /  5.8 °C 29.8in /  1009.0hPa SW 7.6mph /  12.2km/h 10.1mph /  16.3km/h 96% 0in /  0.0mm
05:21 43.5 °F /  6.4 °C 42.4 °F /  5.8 °C 29.8in /  1009.0hPa SSW 5.6mph /  9.0km/h 10.1mph /  16.3km/h 96% 0in /  0.0mm
05:26 43.5 °F /  6.4 °C 42.4 °F /  5.8 °C 29.8in /  1009.0hPa SSW 6.3mph /  10.1km/h 8.1mph /  13.0km/h 96% 0in /  0.0mm
05:31 43.5 °F /  6.4 °C 42.4 °F /  5.8 °C 29.8in /  1009.0hPa SSW 5.6mph /  9.0km/h 8.1mph /  13.0km/h 96% 0in /  0.0mm
05:36 43.5 °F /  6.4 °C 42.4 °F /  5.8 °C 29.8in /  1009.0hPa SSW 5.8mph /  9.3km/h 7.8mph /  12.6km/h 96% 0in /  0.0mm
05:41 43.5 °F /  6.4 °C 42.6 °F /  5.9 °C 29.8in /  1008.0hPa SW 5.4mph /  8.7km/h 8.7mph /  14.0km/h 96% 0in /  0.0mm
05:46 43.5 °F /  6.4 °C 42.6 °F /  5.9 °C 29.8in /  1008.0hPa South 4mph /  6.4km/h 8.7mph /  14.0km/h 96% 0in /  0.0mm
05:51 43.5 °F /  6.4 °C 42.6 °F /  5.9 °C 29.8in /  1008.0hPa SW 8.7mph /  14.0km/h 10.1mph /  16.3km/h 96% 0in /  0.0mm
05:56 43.5 °F /  6.4 °C 42.6 °F /  5.9 °C 29.8in /  1009.0hPa SSW 7.4mph /  11.9km/h 10.1mph /  16.3km/h 96% 0in /  0.0mm
06:01 43.9 °F /  6.6 °C 42.8 °F /  6.0 °C 29.8in /  1009.0hPa SW 5.6mph /  9.0km/h 8.9mph /  14.3km/h 96% 0in /  0.0mm
06:06 43.9 °F /  6.6 °C 42.8 °F /  6.0 °C 29.8in /  1009.0hPa WSW 6.3mph /  10.1km/h 10.5mph /  16.9km/h 96% 0in /  0.0mm
06:11 43.9 °F /  6.6 °C 42.8 °F /  6.0 °C 29.8in /  1009.0hPa SW 7.4mph /  11.9km/h 10.5mph /  16.9km/h 96% 0in /  0.0mm
06:16 44.1 °F /  6.7 °C 43 °F /  6.1 °C 29.8in /  1009.0hPa WSW 6mph /  9.7km/h 12.5mph /  20.1km/h 96% 0in /  0.0mm
06:21 44.1 °F /  6.7 °C 43 °F /  6.1 °C 29.8in /  1009.0hPa SW 6.9mph /  11.1km/h 12.5mph /  20.1km/h 96% 0in /  0.0mm
06:26 44.1 °F /  6.7 °C 43 °F /  6.1 °C 29.8in /  1009.0hPa SW 5.8mph /  9.3km/h 11mph /  17.7km/h 96% 0in /  0.0mm
06:31 44.2 °F /  6.8 °C 43.2 °F /  6.2 °C 29.8in /  1009.0hPa SW 9.6mph /  15.4km/h 11.9mph /  19.1km/h 96% 0in /  0.0mm
06:36 44.2 °F /  6.8 °C 42.8 °F /  6.0 °C 29.8in /  1009.0hPa SSW 9.2mph /  14.8km/h 12.8mph /  20.6km/h 95% 0in /  0.0mm
06:41 44.2 °F /  6.8 °C 43 °F /  6.1 °C 29.7in /  1007.0hPa SSW 9.8mph /  15.8km/h 12.8mph /  20.6km/h 95% 0in /  0.0mm
06:46 44.2 °F /  6.8 °C 43 °F /  6.1 °C 29.7in /  1007.0hPa SSW 10.7mph /  17.2km/h 13.9mph /  22.4km/h 95% 0in /  0.0mm
06:51 44.2 °F /  6.8 °C 43 °F /  6.1 °C 29.7in /  1007.0hPa SW 8.5mph /  13.7km/h 13.9mph /  22.4km/h 95% 0in /  0.0mm
06:56 44.4 °F /  6.9 °C 43.2 °F /  6.2 °C 29.8in /  1008.0hPa WSW 8.5mph /  13.7km/h 12.5mph /  20.1km/h 95% 0in /  0.0mm
07:01 44.4 °F /  6.9 °C 43.2 °F /  6.2 °C 29.8in /  1008.0hPa SSW 9.2mph /  14.8km/h 12.5mph /  20.1km/h 95% 0in /  0.0mm
07:06 44.8 °F /  7.1 °C 43.3 °F /  6.3 °C 29.8in /  1008.0hPa SW 5.8mph /  9.3km/h 11.4mph /  18.3km/h 95% 0in /  0.0mm
07:11 44.8 °F /  7.1 °C 43.3 °F /  6.3 °C 29.7in /  1007.0hPa SW 8.5mph /  13.7km/h 11.4mph /  18.3km/h 95% 0in /  0.0mm
07:16 45 °F /  7.2 °C 43.5 °F /  6.4 °C 29.7in /  1007.0hPa SSW 7.4mph /  11.9km/h 14.8mph /  23.8km/h 95% 0in /  0.0mm
07:21 45.1 °F /  7.3 °C 43.7 °F /  6.5 °C 29.7in /  1007.0hPa SSW 6.5mph /  10.5km/h 14.8mph /  23.8km/h 95% 0in /  0.0mm
07:26 45.1 °F /  7.3 °C 43.7 °F /  6.5 °C 29.7in /  1007.0hPa WSW 10.1mph /  16.3km/h 12.3mph /  19.8km/h 95% 0in /  0.0mm
07:31 45.1 °F /  7.3 °C 43.9 °F /  6.6 °C 29.7in /  1007.0hPa SSW 4.9mph /  7.9km/h 12.3mph /  19.8km/h 95% 0in /  0.0mm
07:36 45.3 °F /  7.4 °C 44.1 °F /  6.7 °C 29.7in /  1007.0hPa WSW 6mph /  9.7km/h 12.3mph /  19.8km/h 95% 0in /  0.0mm
07:41 45.3 °F /  7.4 °C 44.1 °F /  6.7 °C 29.7in /  1007.0hPa SW 8.7mph /  14.0km/h 10.5mph /  16.9km/h 95% 0in /  0.0mm
07:46 45.9 °F /  7.7 °C 44.4 °F /  6.9 °C 29.7in /  1007.0hPa WSW 8.5mph /  13.7km/h 12.3mph /  19.8km/h 95% 0in /  0.0mm
07:51 45.9 °F /  7.7 °C 44.4 °F /  6.9 °C 29.7in /  1007.0hPa SW 12.3mph /  19.8km/h 13mph /  20.9km/h 95% 0in /  0.0mm
07:56 46 °F /  7.8 °C 44.8 °F /  7.1 °C 29.7in /  1007.0hPa SW 8.1mph /  13.0km/h 14.5mph /  23.3km/h 95% 0in /  0.0mm
08:01 46.2 °F /  7.9 °C 45 °F /  7.2 °C 29.7in /  1007.0hPa WSW 11mph /  17.7km/h 14.5mph /  23.3km/h 95% 0in /  0.0mm
08:06 46.6 °F /  8.1 °C 45.1 °F /  7.3 °C 29.7in /  1007.0hPa SW 8.5mph /  13.7km/h 14.8mph /  23.8km/h 95% 0in /  0.0mm
08:11 46.6 °F /  8.1 °C 45.3 °F /  7.4 °C 29.7in /  1007.0hPa WSW 9.8mph /  15.8km/h 14.8mph /  23.8km/h 95% 0in /  0.0mm
08:16 46.6 °F /  8.1 °C 45.3 °F /  7.4 °C 29.7in /  1007.0hPa SSW 10.1mph /  16.3km/h 12.5mph /  20.1km/h 95% 0in /  0.0mm
08:21 46.8 °F /  8.2 °C 45.5 °F /  7.5 °C 29.7in /  1007.0hPa WSW 10.1mph /  16.3km/h 12.8mph /  20.6km/h 95% 0in /  0.0mm
08:26 46.8 °F /  8.2 °C 45.5 °F /  7.5 °C 29.8in /  1008.0hPa SSW 7.6mph /  12.2km/h 12.8mph /  20.6km/h 95% 0in /  0.0mm
08:31 46.9 °F /  8.3 °C 45.7 °F /  7.6 °C 29.8in /  1008.0hPa WSW 8.9mph /  14.3km/h 12.1mph /  19.5km/h 95% 0in /  0.0mm
08:36 46.9 °F /  8.3 °C 45.7 °F /  7.6 °C 29.8in /  1008.0hPa WSW 10.5mph /  16.9km/h 12.5mph /  20.1km/h 95% 0in /  0.0mm
08:41 46.9 °F /  8.3 °C 45.3 °F /  7.4 °C 29.7in /  1007.0hPa WSW 10.5mph /  16.9km/h 13mph /  20.9km/h 94% 0in /  0.0mm
08:46 47.1 °F /  8.4 °C 45.9 °F /  7.7 °C 29.7in /  1007.0hPa WSW 10.5mph /  16.9km/h 13mph /  20.9km/h 95% 0in /  0.0mm
08:51 47.3 °F /  8.5 °C 46 °F /  7.8 °C 29.7in /  1007.0hPa SW 10.7mph /  17.2km/h 15.4mph /  24.8km/h 95% 0in /  0.0mm
08:56 47.3 °F /  8.5 °C 46 °F /  7.8 °C 29.7in /  1007.0hPa WSW 8.7mph /  14.0km/h 15.4mph /  24.8km/h 95% 0in /  0.0mm
09:01 47.3 °F /  8.5 °C 45.7 °F /  7.6 °C 29.7in /  1007.0hPa WSW 9.8mph /  15.8km/h 11.2mph /  18.0km/h 94% 0in /  0.0mm
09:06 47.3 °F /  8.5 °C 46 °F /  7.8 °C 29.7in /  1007.0hPa WSW 9.6mph /  15.4km/h 12.5mph /  20.1km/h 95% 0in /  0.0mm
09:11 47.5 °F /  8.6 °C 46.2 °F /  7.9 °C 29.8in /  1008.0hPa WSW 8.5mph /  13.7km/h 15.2mph /  24.5km/h 95% 0in /  0.0mm
09:16 47.5 °F /  8.6 °C 46.2 °F /  7.9 °C 29.8in /  1008.0hPa WSW 8.1mph /  13.0km/h 15.2mph /  24.5km/h 95% 0in /  0.0mm
09:21 47.5 °F /  8.6 °C 46.2 °F /  7.9 °C 29.8in /  1008.0hPa WSW 8.7mph /  14.0km/h 11.9mph /  19.1km/h 95% 0in /  0.0mm
09:26 47.5 °F /  8.6 °C 45.9 °F /  7.7 °C 29.7in /  1007.0hPa SW 10.5mph /  16.9km/h 12.3mph /  19.8km/h 94% 0in /  0.0mm
09:31 47.7 °F /  8.7 °C 46 °F /  7.8 °C 29.7in /  1007.0hPa WSW 10.1mph /  16.3km/h 13mph /  20.9km/h 94% 0in /  0.0mm
09:33 47.7 °F /  8.7 °C 46 °F /  7.8 °C 29.7in /  1007.0hPa WSW 12.8mph /  20.6km/h 13.2mph /  21.2km/h 94% 0in /  0.0mm
09:38 47.7 °F /  8.7 °C 46 °F /  7.8 °C 29.7in /  1007.0hPa WSW 16.1mph /  25.9km/h 16.6mph /  26.7km/h 94% 0in /  0.0mm
09:43 47.8 °F /  8.8 °C 46.2 °F /  7.9 °C 29.7in /  1007.0hPa WSW 13mph /  20.9km/h 16.6mph /  26.7km/h 94% 0in /  0.0mm
09:48 47.8 °F /  8.8 °C 46.2 °F /  7.9 °C 29.7in /  1007.0hPa WSW 10.7mph /  17.2km/h 14.8mph /  23.8km/h 94% 0in /  0.0mm
09:54 48 °F /  8.9 °C 46.4 °F /  8.0 °C 29.7in /  1007.0hPa WSW 8.1mph /  13.0km/h 14.8mph /  23.8km/h 94% 0in /  0.0mm
09:59 48 °F /  8.9 °C 46.4 °F /  8.0 °C 29.7in /  1007.0hPa WSW 9.8mph /  15.8km/h 13.2mph /  21.2km/h 94% 0in /  0.0mm
10:04 48.2 °F /  9.0 °C 46.6 °F /  8.1 °C 29.7in /  1007.0hPa WSW 7.6mph /  12.2km/h 12.5mph /  20.1km/h 94% 0in /  0.0mm
10:09 48.2 °F /  9.0 °C 46.6 °F /  8.1 °C 29.7in /  1007.0hPa WSW 12.8mph /  20.6km/h 13mph /  20.9km/h 94% 0in /  0.0mm
10:14 48.2 °F /  9.0 °C 46.6 °F /  8.1 °C 29.7in /  1007.0hPa WSW 8.5mph /  13.7km/h 13.2mph /  21.2km/h 94% 0in /  0.0mm
10:19 48.4 °F /  9.1 °C 46.8 °F /  8.2 °C 29.7in /  1007.0hPa WSW 12.5mph /  20.1km/h 13.2mph /  21.2km/h 94% 0.01in /  0.3mm
10:24 48.4 °F /  9.1 °C 46.8 °F /  8.2 °C 29.7in /  1007.0hPa West 10.1mph /  16.3km/h 12.5mph /  20.1km/h 94% 0.01in /  0.3mm
10:29 48.6 °F /  9.2 °C 46.9 °F /  8.3 °C 29.7in /  1007.0hPa WSW 11mph /  17.7km/h 15.4mph /  24.8km/h 94% 0.01in /  0.3mm
10:34 48.7 °F /  9.3 °C 47.1 °F /  8.4 °C 29.7in /  1007.0hPa WSW 11mph /  17.7km/h 15.4mph /  24.8km/h 94% 0.01in /  0.3mm
10:39 48.9 °F /  9.4 °C 47.3 °F /  8.5 °C 29.7in /  1007.0hPa WSW 8.7mph /  14.0km/h 13.4mph /  21.6km/h 94% 0.01in /  0.3mm
10:44 49.1 °F /  9.5 °C 47.5 °F /  8.6 °C 29.7in /  1007.0hPa WSW 8.9mph /  14.3km/h 11mph /  17.7km/h 94% 0.01in /  0.3mm
10:49 49.5 °F /  9.7 °C 47.8 °F /  8.8 °C 29.7in /  1007.0hPa West 8.7mph /  14.0km/h 13.2mph /  21.2km/h 94% 0.01in /  0.3mm
10:54 49.8 °F /  9.9 °C 48.2 °F /  9.0 °C 29.7in /  1006.0hPa WSW 9.8mph /  15.8km/h 13.2mph /  21.2km/h 94% 0.01in /  0.3mm
10:59 50 °F /  10.0 °C 48.4 °F /  9.1 °C 29.7in /  1006.0hPa West 11mph /  17.7km/h 17.9mph /  28.8km/h 94% 0.01in /  0.3mm
11:04 50 °F /  10.0 °C 48.4 °F /  9.1 °C 29.7in /  1006.0hPa West 14.5mph /  23.3km/h 17.9mph /  28.8km/h 94% 0.01in /  0.3mm
11:09 50.2 °F /  10.1 °C 48.6 °F /  9.2 °C 29.7in /  1007.0hPa WSW 10.1mph /  16.3km/h 16.1mph /  25.9km/h 94% 0.01in /  0.3mm
11:14 50.7 °F /  10.4 °C 48.9 °F /  9.4 °C 29.7in /  1007.0hPa WSW 13.2mph /  21.2km/h 16.1mph /  25.9km/h 94% 0.01in /  0.3mm
11:19 51.1 °F /  10.6 °C 49.5 °F /  9.7 °C 29.7in /  1007.0hPa WSW 10.3mph /  16.6km/h 17mph /  27.4km/h 94% 0in /  0.0mm
11:24 51.4 °F /  10.8 °C 49.6 °F /  9.8 °C 29.7in /  1007.0hPa West 12.8mph /  20.6km/h 17mph /  27.4km/h 94% 0in /  0.0mm
11:29 51.6 °F /  10.9 °C 49.8 °F /  9.9 °C 29.7in /  1007.0hPa WNW 13mph /  20.9km/h 16.8mph /  27.0km/h 94% 0in /  0.0mm
11:34 52 °F /  11.1 °C 50 °F /  10.0 °C 29.7in /  1007.0hPa West 17.4mph /  28.0km/h 22.6mph /  36.4km/h 93% 0in /  0.0mm
11:39 52.3 °F /  11.3 °C 50.4 °F /  10.2 °C 29.7in /  1007.0hPa West 15.2mph /  24.5km/h 22.6mph /  36.4km/h 93% 0in /  0.0mm
11:44 52.3 °F /  11.3 °C 50.4 °F /  10.2 °C 29.7in /  1007.0hPa West 13.2mph /  21.2km/h 18.1mph /  29.1km/h 93% 0in /  0.0mm
11:49 52.5 °F /  11.4 °C 50.7 °F /  10.4 °C 29.7in /  1007.0hPa West 14.1mph /  22.7km/h 18.1mph /  29.1km/h 93% 0in /  0.0mm
11:54 52.5 °F /  11.4 °C 51.1 °F /  10.6 °C 29.7in /  1007.0hPa West 11mph /  17.7km/h 17.9mph /  28.8km/h 94% 0in /  0.0mm
11:59 52.9 °F /  11.6 °C 51.1 °F /  10.6 °C 29.7in /  1007.0hPa WSW 8.1mph /  13.0km/h 17.9mph /  28.8km/h 94% 0in /  0.0mm
12:04 53.4 °F /  11.9 °C 51.8 °F /  11.0 °C 29.7in /  1007.0hPa West 12.3mph /  19.8km/h 17.4mph /  28.0km/h 94% 0in /  0.0mm
12:09 54 °F /  12.2 °C 52.3 °F /  11.3 °C 29.7in /  1007.0hPa West 12.8mph /  20.6km/h 15.9mph /  25.6km/h 94% 0in /  0.0mm
12:14 54 °F /  12.2 °C 52.2 °F /  11.2 °C 29.7in /  1007.0hPa West 11mph /  17.7km/h 14.8mph /  23.8km/h 94% 0in /  0.0mm
12:19 53.2 °F /  11.8 °C 51.1 °F /  10.6 °C 29.7in /  1007.0hPa WSW 11mph /  17.7km/h 15.2mph /  24.5km/h 92% 0in /  0.0mm
12:24 53.2 °F /  11.8 °C 50.9 °F /  10.5 °C 29.7in /  1007.0hPa West 12.5mph /  20.1km/h 15.2mph /  24.5km/h 92% 0in /  0.0mm
12:29 53.2 °F /  11.8 °C 50.9 °F /  10.5 °C 29.7in /  1007.0hPa West 6.5mph /  10.5km/h 15.2mph /  24.5km/h 92% 0in /  0.0mm
12:34 53.1 °F /  11.7 °C 50.7 °F /  10.4 °C 29.7in /  1007.0hPa West 8.1mph /  13.0km/h 17.2mph /  27.7km/h 92% 0in /  0.0mm
12:39 53.2 °F /  11.8 °C 50.5 °F /  10.3 °C 29.7in /  1007.0hPa WNW 10.3mph /  16.6km/h 17.2mph /  27.7km/h 91% 0in /  0.0mm
12:44 53.8 °F /  12.1 °C 51.1 °F /  10.6 °C 29.7in /  1007.0hPa West 14.5mph /  23.3km/h 16.6mph /  26.7km/h 91% 0in /  0.0mm
12:49 54 °F /  12.2 °C 51.3 °F /  10.7 °C 29.7in /  1007.0hPa WSW 7.8mph /  12.6km/h 17.2mph /  27.7km/h 90% 0in /  0.0mm
12:54 54 °F /  12.2 °C 50.5 °F /  10.3 °C 29.7in /  1007.0hPa West 3.8mph /  6.1km/h 17.2mph /  27.7km/h 88% 0in /  0.0mm
12:59 54.3 °F /  12.4 °C 50.9 °F /  10.5 °C 29.7in /  1007.0hPa West 12.8mph /  20.6km/h 20.1mph /  32.3km/h 88% 0in /  0.0mm
13:04 54.3 °F /  12.4 °C 50 °F /  10.0 °C 29.7in /  1007.0hPa West 17.7mph /  28.5km/h 20.1mph /  32.3km/h 85% 0in /  0.0mm
13:09 54.9 °F /  12.7 °C 50 °F /  10.0 °C 29.7in /  1007.0hPa NW 9.6mph /  15.4km/h 17.7mph /  28.5km/h 84% 0in /  0.0mm
13:14 54.9 °F /  12.7 °C 49.5 °F /  9.7 °C 29.7in /  1007.0hPa WNW 6.5mph /  10.5km/h 17.7mph /  28.5km/h 82% 0in /  0.0mm
13:19 54 °F /  12.2 °C 46.2 °F /  7.9 °C 29.7in /  1007.0hPa North 6mph /  9.7km/h 16.6mph /  26.7km/h 75% 0in /  0.0mm
13:24 54 °F /  12.2 °C 46.9 °F /  8.3 °C 29.7in /  1007.0hPa WNW 7.6mph /  12.2km/h 14.5mph /  23.3km/h 77% 0in /  0.0mm
13:29 53.4 °F /  11.9 °C 45.1 °F /  7.3 °C 29.7in /  1007.0hPa WSW 10.3mph /  16.6km/h 12.3mph /  19.8km/h 73% 0in /  0.0mm
13:34 53.1 °F /  11.7 °C 44.6 °F /  7.0 °C 29.7in /  1007.0hPa WNW 6.5mph /  10.5km/h 12.3mph /  19.8km/h 73% 0in /  0.0mm
13:39 52.5 °F /  11.4 °C 43.5 °F /  6.4 °C 29.7in /  1007.0hPa WNW 7.4mph /  11.9km/h 12.8mph /  20.6km/h 71% 0in /  0.0mm
13:44 52.5 °F /  11.4 °C 43.7 °F /  6.5 °C 29.7in /  1007.0hPa WNW 6mph /  9.7km/h 13.6mph /  21.9km/h 72% 0in /  0.0mm
13:49 52.2 °F /  11.2 °C 43.7 °F /  6.5 °C 29.7in /  1007.0hPa NNW 6.5mph /  10.5km/h 13.6mph /  21.9km/h 73% 0in /  0.0mm
13:54 52 °F /  11.1 °C 43.2 °F /  6.2 °C 29.7in /  1007.0hPa North 7.2mph /  11.6km/h 9.2mph /  14.8km/h 72% 0in /  0.0mm
13:59 51.6 °F /  10.9 °C 43.2 °F /  6.2 °C 29.7in /  1007.0hPa North 2.9mph /  4.7km/h 9.2mph /  14.8km/h 73% 0in /  0.0mm
14:04 51.6 °F /  10.9 °C 43.9 °F /  6.6 °C 29.7in /  1007.0hPa West 5.4mph /  8.7km/h 8.7mph /  14.0km/h 75% 0in /  0.0mm
14:09 51.4 °F /  10.8 °C 44.1 °F /  6.7 °C 29.8in /  1008.0hPa NNW 3.4mph /  5.5km/h 6.5mph /  10.5km/h 76% 0in /  0.0mm
14:14 51.4 °F /  10.8 °C 44.4 °F /  6.9 °C 29.8in /  1008.0hPa NW 5.4mph /  8.7km/h 9.6mph /  15.4km/h 77% 0in /  0.0mm
14:19 51.8 °F /  11.0 °C 45.9 °F /  7.7 °C 29.8in /  1008.0hPa North 3.6mph /  5.8km/h 9.6mph /  15.4km/h 80% 0in /  0.0mm
14:24 52.2 °F /  11.2 °C 45.9 °F /  7.7 °C 29.7in /  1007.0hPa WNW 3.8mph /  6.1km/h 11mph /  17.7km/h 79% 0in /  0.0mm
14:29 52.5 °F /  11.4 °C 45.7 °F /  7.6 °C 29.7in /  1007.0hPa NNW 6mph /  9.7km/h 15.4mph /  24.8km/h 77% 0in /  0.0mm
14:34 52.9 °F /  11.6 °C 45.9 °F /  7.7 °C 29.7in /  1007.0hPa WNW 6mph /  9.7km/h 15.4mph /  24.8km/h 77% 0in /  0.0mm
14:39 52.9 °F /  11.6 °C 45.5 °F /  7.5 °C 29.7in /  1007.0hPa WNW 3.1mph /  5.0km/h 10.3mph /  16.6km/h 76% 0in /  0.0mm
14:44 52.5 °F /  11.4 °C 44.8 °F /  7.1 °C 29.7in /  1007.0hPa NNW 6.3mph /  10.1km/h 10.3mph /  16.6km/h 75% 0in /  0.0mm
14:49 52.2 °F /  11.2 °C 44.4 °F /  6.9 °C 29.7in /  1007.0hPa WNW 4.3mph /  6.9km/h 8.5mph /  13.7km/h 75% 0in /  0.0mm
14:54 51.8 °F /  11.0 °C 43.7 °F /  6.5 °C 29.7in /  1007.0hPa West 4.9mph /  7.9km/h 7.8mph /  12.6km/h 74% 0in /  0.0mm
14:59 51.6 °F /  10.9 °C 43.9 °F /  6.6 °C 29.7in /  1007.0hPa North 3.1mph /  5.0km/h 8.5mph /  13.7km/h 75% 0in /  0.0mm
15:04 51.3 °F /  10.7 °C 43.5 °F /  6.4 °C 29.7in /  1007.0hPa SE 7.2mph /  11.6km/h 8.5mph /  13.7km/h 75% 0in /  0.0mm
15:09 51.1 °F /  10.6 °C 43.7 °F /  6.5 °C 29.7in /  1007.0hPa NNW 4.3mph /  6.9km/h 8.5mph /  13.7km/h 76% 0in /  0.0mm
15:14 51.3 °F /  10.7 °C 44.2 °F /  6.8 °C 29.7in /  1007.0hPa West 9.2mph /  14.8km/h 9.2mph /  14.8km/h 77% 0in /  0.0mm
15:19 51.4 °F /  10.8 °C 43.3 °F /  6.3 °C 29.7in /  1007.0hPa WNW 5.8mph /  9.3km/h 14.8mph /  23.8km/h 74% 0in /  0.0mm
15:24 51.4 °F /  10.8 °C 41.2 °F /  5.1 °C 29.8in /  1008.0hPa NNW 10.3mph /  16.6km/h 14.8mph /  23.8km/h 68% 0in /  0.0mm
15:29 51.1 °F /  10.6 °C 41.2 °F /  5.1 °C 29.8in /  1008.0hPa NW 2.9mph /  4.7km/h 13.2mph /  21.2km/h 69% 0in /  0.0mm
15:34 50.9 °F /  10.5 °C 40.6 °F /  4.8 °C 29.8in /  1008.0hPa WNW 6.3mph /  10.1km/h 13.2mph /  21.2km/h 68% 0in /  0.0mm
15:39 50.7 °F /  10.4 °C 40.5 °F /  4.7 °C 29.8in /  1008.0hPa WNW 3.8mph /  6.1km/h 12.5mph /  20.1km/h 68% 0in /  0.0mm
15:44 50.7 °F /  10.4 °C 39.7 °F /  4.3 °C 29.8in /  1008.0hPa North 7.8mph /  12.6km/h 12.5mph /  20.1km/h 66% 0in /  0.0mm
15:49 50.5 °F /  10.3 °C 39.9 °F /  4.4 °C 29.8in /  1008.0hPa West 3.4mph /  5.5km/h 11mph /  17.7km/h 67% 0in /  0.0mm
15:51 50.7 °F /  10.4 °C 40.1 °F /  4.5 °C 29.8in /  1008.0hPa North 5.8mph /  9.3km/h 11mph /  17.7km/h 67% 0in /  0.0mm
15:56 50.9 °F /  10.5 °C 40.3 °F /  4.6 °C 29.8in /  1009.0hPa NNW 2.9mph /  4.7km/h 11mph /  17.7km/h 67% 0in /  0.0mm
16:01 50.5 °F /  10.3 °C 39.9 °F /  4.4 °C 29.8in /  1009.0hPa NNE 5.8mph /  9.3km/h 11mph /  17.7km/h 67% 0in /  0.0mm
16:06 50.2 °F /  10.1 °C 39.6 °F /  4.2 °C 29.8in /  1009.0hPa West 3.1mph /  5.0km/h 6.3mph /  10.1km/h 67% 0in /  0.0mm
16:11 50.4 °F /  10.2 °C 40.3 °F /  4.6 °C 29.8in /  1009.0hPa NE 3.4mph /  5.5km/h 8.5mph /  13.7km/h 68% 0in /  0.0mm
16:16 49.8 °F /  9.9 °C 39.9 °F /  4.4 °C 29.8in /  1009.0hPa WNW 10.3mph /  16.6km/h 17.4mph /  28.0km/h 69% 0in /  0.0mm
16:21 49.3 °F /  9.6 °C 39.9 °F /  4.4 °C 29.8in /  1009.0hPa WNW 6.5mph /  10.5km/h 17.4mph /  28.0km/h 70% 0in /  0.0mm
16:26 48.7 °F /  9.3 °C 39 °F /  3.9 °C 29.8in /  1010.0hPa NNW 5.6mph /  9.0km/h 18.1mph /  29.1km/h 69% 0in /  0.0mm
16:31 48.4 °F /  9.1 °C 37.9 °F /  3.3 °C 29.8in /  1010.0hPa WNW 11.4mph /  18.3km/h 18.1mph /  29.1km/h 67% 0in /  0.0mm
16:36 48.4 °F /  9.1 °C 36.3 °F /  2.4 °C 29.8in /  1010.0hPa NNW 7.8mph /  12.6km/h 17.4mph /  28.0km/h 63% 0in /  0.0mm
16:41 48.4 °F /  9.1 °C 35.1 °F /  1.7 °C 29.8in /  1010.0hPa NNW 3.1mph /  5.0km/h 13mph /  20.9km/h 60% 0in /  0.0mm
16:46 48.4 °F /  9.1 °C 35.1 °F /  1.7 °C 29.8in /  1010.0hPa North 5.6mph /  9.0km/h 12.8mph /  20.6km/h 60% 0in /  0.0mm
16:51 48.4 °F /  9.1 °C 35.1 °F /  1.7 °C 29.8in /  1010.0hPa North 5.8mph /  9.3km/h 13.2mph /  21.2km/h 60% 0in /  0.0mm
16:56 48 °F /  8.9 °C 35.2 °F /  1.8 °C 29.8in /  1010.0hPa North 6mph /  9.7km/h 13.2mph /  21.2km/h 61% 0in /  0.0mm
17:01 48 °F /  8.9 °C 35.6 °F /  2.0 °C 29.8in /  1010.0hPa WNW 8.1mph /  13.0km/h 12.8mph /  20.6km/h 62% 0in /  0.0mm
17:06 48 °F /  8.9 °C 35.2 °F /  1.8 °C 29.8in /  1010.0hPa NNW 4mph /  6.4km/h 12.8mph /  20.6km/h 61% 0in /  0.0mm
17:11 47.8 °F /  8.8 °C 35.4 °F /  1.9 °C 29.8in /  1010.0hPa NW 7.4mph /  11.9km/h 13mph /  20.9km/h 62% 0in /  0.0mm
17:16 47.8 °F /  8.8 °C 35.4 °F /  1.9 °C 29.8in /  1010.0hPa West 5.4mph /  8.7km/h 13mph /  20.9km/h 62% 0in /  0.0mm
17:21 47.7 °F /  8.7 °C 35.8 °F /  2.1 °C 29.8in /  1010.0hPa NNW 7.8mph /  12.6km/h 10.7mph /  17.2km/h 63% 0in /  0.0mm
17:26 47.7 °F /  8.7 °C 36.1 °F /  2.3 °C 29.8in /  1010.0hPa NNW 8.1mph /  13.0km/h 10.7mph /  17.2km/h 64% 0in /  0.0mm
17:31 47.5 °F /  8.6 °C 36 °F /  2.2 °C 29.8in /  1010.0hPa West 4.9mph /  7.9km/h 8.7mph /  14.0km/h 64% 0in /  0.0mm
17:36 47.5 °F /  8.6 °C 35.4 °F /  1.9 °C 29.8in /  1010.0hPa NNW 5.6mph /  9.0km/h 8.7mph /  14.0km/h 63% 0in /  0.0mm
17:41 47.3 °F /  8.5 °C 35.4 °F /  1.9 °C 29.8in /  1010.0hPa West 6.5mph /  10.5km/h 8.7mph /  14.0km/h 63% 0in /  0.0mm
17:46 47.1 °F /  8.4 °C 34.9 °F /  1.6 °C 29.8in /  1010.0hPa West 2mph /  3.2km/h 11mph /  17.7km/h 62% 0in /  0.0mm
17:51 47.1 °F /  8.4 °C 35.2 °F /  1.8 °C 29.8in /  1010.0hPa NNW 3.4mph /  5.5km/h 11mph /  17.7km/h 63% 0in /  0.0mm
17:56 46.9 °F /  8.3 °C 34.5 °F /  1.4 °C 29.9in /  1011.1hPa WNW 5.8mph /  9.3km/h 9.8mph /  15.8km/h 62% 0in /  0.0mm
18:01 46.9 °F /  8.3 °C 34.5 °F /  1.4 °C 29.9in /  1011.1hPa West 6.3mph /  10.1km/h 8.7mph /  14.0km/h 62% 0in /  0.0mm
18:06 46.9 °F /  8.3 °C 34.5 °F /  1.4 °C 29.9in /  1011.1hPa ENE 3.6mph /  5.8km/h 8.7mph /  14.0km/h 62% 0in /  0.0mm
18:11 46.9 °F /  8.3 °C 34.5 °F /  1.4 °C 29.8in /  1010.0hPa NNW 4.7mph /  7.6km/h 8.1mph /  13.0km/h 62% 0in /  0.0mm
18:16 46.9 °F /  8.3 °C 34.2 °F /  1.2 °C 29.8in /  1010.0hPa NW 4.7mph /  7.6km/h 8.1mph /  13.0km/h 61% 0in /  0.0mm
18:21 46.9 °F /  8.3 °C 34.2 °F /  1.2 °C 29.8in /  1010.0hPa West 2.5mph /  4.0km/h 6.7mph /  10.8km/h 61% 0in /  0.0mm
18:26 46.8 °F /  8.2 °C 34.5 °F /  1.4 °C 29.9in /  1011.1hPa NNW 3.4mph /  5.5km/h 10.7mph /  17.2km/h 62% 0in /  0.0mm
18:31 46.8 °F /  8.2 °C 34.2 °F /  1.2 °C 29.9in /  1011.1hPa NW 1.6mph /  2.6km/h 10.7mph /  17.2km/h 61% 0in /  0.0mm
18:36 46.6 °F /  8.1 °C 34.3 °F /  1.3 °C 29.9in /  1011.1hPa WNW 4.3mph /  6.9km/h 8.1mph /  13.0km/h 62% 0in /  0.0mm
18:41 46.6 °F /  8.1 °C 34.2 °F /  1.2 °C 29.9in /  1011.1hPa NW 1.1mph /  1.8km/h 8.7mph /  14.0km/h 62% 0in /  0.0mm
18:46 46.6 °F /  8.1 °C 34.5 °F /  1.4 °C 29.9in /  1011.1hPa WNW 2.5mph /  4.0km/h 8.7mph /  14.0km/h 63% 0in /  0.0mm
18:51 46.2 °F /  7.9 °C 34.9 °F /  1.6 °C 29.9in /  1011.1hPa WNW 7.6mph /  12.2km/h 7.6mph /  12.2km/h 64% 0in /  0.0mm
18:56 46.2 °F /  7.9 °C 35.2 °F /  1.8 °C 29.9in /  1011.1hPa WNW 3.1mph /  5.0km/h 7.6mph /  12.2km/h 65% 0in /  0.0mm
19:01 46 °F /  7.8 °C 35.4 °F /  1.9 °C 29.9in /  1011.1hPa NNW 7.4mph /  11.9km/h 7.6mph /  12.2km/h 66% 0in /  0.0mm
19:06 45.9 °F /  7.7 °C 35.6 °F /  2.0 °C 29.9in /  1011.1hPa NNW 2mph /  3.2km/h 7.6mph /  12.2km/h 67% 0in /  0.0mm
19:11 45.9 °F /  7.7 °C 36 °F /  2.2 °C 29.9in /  1011.1hPa WNW 7.2mph /  11.6km/h 7.4mph /  11.9km/h 68% 0in /  0.0mm
19:16 45.9 °F /  7.7 °C 36.1 °F /  2.3 °C 29.9in /  1011.1hPa WSW 3.6mph /  5.8km/h 7.2mph /  11.6km/h 69% 0in /  0.0mm
19:21 45.7 °F /  7.6 °C 36 °F /  2.2 °C 29.9in /  1011.1hPa NNW 4.3mph /  6.9km/h 8.1mph /  13.0km/h 69% 0in /  0.0mm
19:26 45.1 °F /  7.3 °C 36 °F /  2.2 °C 29.9in /  1012.1hPa West 5.4mph /  8.7km/h 10.7mph /  17.2km/h 70% 0in /  0.0mm
19:31 45.1 °F /  7.3 °C 36 °F /  2.2 °C 29.9in /  1012.1hPa WNW 6.9mph /  11.1km/h 10.7mph /  17.2km/h 70% 0in /  0.0mm
19:36 45.1 °F /  7.3 °C 36 °F /  2.2 °C 29.9in /  1012.1hPa NNW 3.1mph /  5.0km/h 10.1mph /  16.3km/h 70% 0in /  0.0mm
19:41 45.1 °F /  7.3 °C 36 °F /  2.2 °C 29.9in /  1012.1hPa WNW 2.9mph /  4.7km/h 10.1mph /  16.3km/h 70% 0in /  0.0mm
19:46 45.1 °F /  7.3 °C 36 °F /  2.2 °C 29.9in /  1012.1hPa North 2.7mph /  4.3km/h 7.6mph /  12.2km/h 70% 0in /  0.0mm
19:51 45.1 °F /  7.3 °C 36 °F /  2.2 °C 29.9in /  1012.1hPa WSW 3.4mph /  5.5km/h 7.6mph /  12.2km/h 70% 0in /  0.0mm
19:56 45.7 °F /  7.6 °C 36 °F /  2.2 °C 29.9in /  1012.1hPa NNW 7.2mph /  11.6km/h 8.7mph /  14.0km/h 69% 0in /  0.0mm
20:01 45.7 °F /  7.6 °C 35.6 °F /  2.0 °C 29.9in /  1012.1hPa WNW 5.6mph /  9.0km/h 8.7mph /  14.0km/h 68% 0in /  0.0mm
20:06 45.3 °F /  7.4 °C 35.4 °F /  1.9 °C 29.9in /  1012.1hPa North 6mph /  9.7km/h 10.5mph /  16.9km/h 68% 0in /  0.0mm
20:11 45.1 °F /  7.3 °C 35.2 °F /  1.8 °C 29.9in /  1013.1hPa NNW 8.1mph /  13.0km/h 11.2mph /  18.0km/h 68% 0in /  0.0mm
20:16 45.1 °F /  7.3 °C 35.1 °F /  1.7 °C 29.9in /  1013.1hPa NNW 7.4mph /  11.9km/h 11.2mph /  18.0km/h 68% 0in /  0.0mm
20:21 45 °F /  7.2 °C 34.5 °F /  1.4 °C 29.9in /  1013.1hPa NW 3.8mph /  6.1km/h 7.8mph /  12.6km/h 67% 0in /  0.0mm
20:26 45 °F /  7.2 °C 34.5 °F /  1.4 °C 29.9in /  1013.1hPa North 5.4mph /  8.7km/h 7.8mph /  12.6km/h 67% 0in /  0.0mm
20:31 44.4 °F /  6.9 °C 34.2 °F /  1.2 °C 29.9in /  1013.1hPa North 2.9mph /  4.7km/h 7.8mph /  12.6km/h 67% 0in /  0.0mm
20:36 44.2 °F /  6.8 °C 33.6 °F /  0.9 °C 29.9in /  1013.1hPa West 1.3mph /  2.1km/h 7.6mph /  12.2km/h 66% 0in /  0.0mm
20:41 44.2 °F /  6.8 °C 34.2 °F /  1.2 °C 29.9in /  1013.1hPa West 1.1mph /  1.8km/h 6.3mph /  10.1km/h 67% 0in /  0.0mm
20:46 44.2 °F /  6.8 °C 34.2 °F /  1.2 °C 29.9in /  1013.1hPa Calm   6.5mph /  10.5km/h 67% 0in /  0.0mm
20:51 44.2 °F /  6.8 °C 34.3 °F /  1.3 °C 29.9in /  1013.1hPa NW 3.1mph /  5.0km/h 7.4mph /  11.9km/h 68% 0in /  0.0mm
20:56 44.4 °F /  6.9 °C 34.5 °F /  1.4 °C 29.9in /  1013.1hPa West 4mph /  6.4km/h 7.4mph /  11.9km/h 68% 0in /  0.0mm
21:01 44.4 °F /  6.9 °C 34.5 °F /  1.4 °C 29.9in /  1013.1hPa West 3.8mph /  6.1km/h 7.4mph /  11.9km/h 68% 0in /  0.0mm
21:06 44.4 °F /  6.9 °C 34.5 °F /  1.4 °C 29.9in /  1013.1hPa WNW 4.9mph /  7.9km/h 8.1mph /  13.0km/h 68% 0in /  0.0mm
21:11 44.2 °F /  6.8 °C 34.9 °F /  1.6 °C 29.9in /  1012.1hPa West 3.1mph /  5.0km/h 8.1mph /  13.0km/h 69% 0in /  0.0mm
21:16 43.9 °F /  6.6 °C 34.7 °F /  1.5 °C 29.9in /  1012.1hPa West 3.6mph /  5.8km/h 6.3mph /  10.1km/h 70% 0in /  0.0mm
21:21 43.5 °F /  6.4 °C 34.5 °F /  1.4 °C 29.9in /  1012.1hPa West 4.9mph /  7.9km/h 6mph /  9.7km/h 70% 0in /  0.0mm
21:26 43.3 °F /  6.3 °C 34.5 °F /  1.4 °C 29.9in /  1013.1hPa West 5.4mph /  8.7km/h 6mph /  9.7km/h 71% 0in /  0.0mm
21:31 43.2 °F /  6.2 °C 34.7 °F /  1.5 °C 29.9in /  1013.1hPa West 2.9mph /  4.7km/h 6mph /  9.7km/h 72% 0in /  0.0mm
21:36 42.8 °F /  6.0 °C 34.7 °F /  1.5 °C 29.9in /  1013.1hPa Calm   4.9mph /  7.9km/h 73% 0in /  0.0mm
21:41 42.8 °F /  6.0 °C 34.7 °F /  1.5 °C 29.9in /  1013.1hPa West 2.5mph /  4.0km/h 4.3mph /  6.9km/h 73% 0in /  0.0mm
21:46 42.6 °F /  5.9 °C 34.9 °F /  1.6 °C 29.9in /  1013.1hPa WSW 3.6mph /  5.8km/h 5.6mph /  9.0km/h 74% 0in /  0.0mm
21:51 42.6 °F /  5.9 °C 34.9 °F /  1.6 °C 29.9in /  1013.1hPa West 3.6mph /  5.8km/h 7.4mph /  11.9km/h 74% 0in /  0.0mm
21:56 42.4 °F /  5.8 °C 35.1 °F /  1.7 °C 29.9in /  1013.1hPa West 6mph /  9.7km/h 7.4mph /  11.9km/h 75% 0in /  0.0mm
22:01 42.4 °F /  5.8 °C 35.4 °F /  1.9 °C 29.9in /  1013.1hPa North 3.8mph /  6.1km/h 6mph /  9.7km/h 76% 0in /  0.0mm
22:06 42.4 °F /  5.8 °C 35.4 °F /  1.9 °C 29.9in /  1013.1hPa NNW 3.8mph /  6.1km/h 7.4mph /  11.9km/h 76% 0in /  0.0mm
22:11 42.6 °F /  5.9 °C 35.4 °F /  1.9 °C 29.9in /  1013.1hPa North 6.5mph /  10.5km/h 7.4mph /  11.9km/h 76% 0in /  0.0mm
22:16 43 °F /  6.1 °C 36 °F /  2.2 °C 29.9in /  1013.1hPa WSW 1.3mph /  2.1km/h 7.8mph /  12.6km/h 76% 0in /  0.0mm
22:21 43.2 °F /  6.2 °C 35.8 °F /  2.1 °C 29.9in /  1013.1hPa West 6mph /  9.7km/h 7.8mph /  12.6km/h 75% 0in /  0.0mm
22:26 43.2 °F /  6.2 °C 35.4 °F /  1.9 °C 29.9in /  1013.1hPa WSW 5.8mph /  9.3km/h 9.8mph /  15.8km/h 74% 0in /  0.0mm
22:31 42.8 °F /  6.0 °C 35.1 °F /  1.7 °C 29.9in /  1013.1hPa West 7.6mph /  12.2km/h 9.8mph /  15.8km/h 74% 0in /  0.0mm
22:36 42.6 °F /  5.9 °C 34.9 °F /  1.6 °C 29.9in /  1013.1hPa West 7.8mph /  12.6km/h 8.7mph /  14.0km/h 74% 0in /  0.0mm
22:41 42.3 °F /  5.7 °C 34.5 °F /  1.4 °C 29.9in /  1012.1hPa WNW 5.6mph /  9.0km/h 8.5mph /  13.7km/h 74% 0in /  0.0mm
22:47 42.1 °F /  5.6 °C 34.3 °F /  1.3 °C 29.9in /  1012.1hPa WNW 3.8mph /  6.1km/h 7.8mph /  12.6km/h 74% 0in /  0.0mm
22:51 41.9 °F /  5.5 °C 34.2 °F /  1.2 °C 29.9in /  1013.1hPa WSW 6mph /  9.7km/h 8.1mph /  13.0km/h 74% 0in /  0.0mm
22:56 41.9 °F /  5.5 °C 34.5 °F /  1.4 °C 29.9in /  1013.1hPa West 2.5mph /  4.0km/h 8.1mph /  13.0km/h 75% 0in /  0.0mm
23:02 41.7 °F /  5.4 °C 34.3 °F /  1.3 °C 29.9in /  1013.1hPa WNW 2.9mph /  4.7km/h 6.7mph /  10.8km/h 75% 0in /  0.0mm
23:07 41.5 °F /  5.3 °C 34.2 °F /  1.2 °C 29.9in /  1013.1hPa West 4.7mph /  7.6km/h 7.8mph /  12.6km/h 75% 0in /  0.0mm
23:12 41.5 °F /  5.3 °C 34.2 °F /  1.2 °C 29.9in /  1013.1hPa WSW 8.1mph /  13.0km/h 8.9mph /  14.3km/h 75% 0in /  0.0mm
23:17 41.7 °F /  5.4 °C 34.3 °F /  1.3 °C 29.9in /  1013.1hPa WNW 4.3mph /  6.9km/h 8.9mph /  14.3km/h 75% 0in /  0.0mm
23:22 41.9 °F /  5.5 °C 34.2 °F /  1.2 °C 29.9in /  1014.1hPa WSW 3.4mph /  5.5km/h 8.7mph /  14.0km/h 74% 0in /  0.0mm
23:27 41.9 °F /  5.5 °C 34.2 °F /  1.2 °C 29.9in /  1014.1hPa NW 4.9mph /  7.9km/h 11mph /  17.7km/h 74% 0in /  0.0mm
23:32 41.9 °F /  5.5 °C 34.2 °F /  1.2 °C 29.9in /  1014.1hPa WNW 10.1mph /  16.3km/h 11mph /  17.7km/h 74% 0in /  0.0mm
23:37 41.9 °F /  5.5 °C 34 °F /  1.1 °C 29.9in /  1013.1hPa WNW 3.8mph /  6.1km/h 10.1mph /  16.3km/h 73% 0in /  0.0mm
23:42 42.1 °F /  5.6 °C 34 °F /  1.1 °C 29.9in /  1013.1hPa West 7.8mph /  12.6km/h 10.1mph /  16.3km/h 73% 0in /  0.0mm
23:47 42.1 °F /  5.6 °C 34 °F /  1.1 °C 29.9in /  1013.1hPa West 6mph /  9.7km/h 9.8mph /  15.8km/h 73% 0in /  0.0mm
23:52 42.1 °F /  5.6 °C 34 °F /  1.1 °C 29.9in /  1013.1hPa WSW 6.5mph /  10.5km/h 10.1mph /  16.3km/h 73% 0in /  0.0mm
23:57 41.9 °F /  5.5 °C 34 °F /  1.1 °C 29.9in /  1013.1hPa West 6mph /  9.7km/h 10.1mph /  16.3km/h 73% 0in /  0.0mm
Données Historique de Météo Turbie

Mise a jour : 20/05/2018 19:50:18
Généré par Cumulus 1.9.4 (1099)